sensor_id;sensor_type;location;lat;lon;timestamp;temperature;humidity
12761;DHT22;6444;49.742;6.114;2023-12-14T00:01:31;12.30;99.90
12761;DHT22;6444;49.742;6.114;2023-12-14T00:03:58;12.50;99.90
12761;DHT22;6444;49.742;6.114;2023-12-14T00:06:24;12.30;99.90
12761;DHT22;6444;49.742;6.114;2023-12-14T00:08:51;11.50;99.90
12761;DHT22;6444;49.742;6.114;2023-12-14T00:11:18;11.80;99.90
12761;DHT22;6444;49.742;6.114;2023-12-14T00:13:45;11.70;99.90
12761;DHT22;6444;49.742;6.114;2023-12-14T00:16:11;11.00;99.90
12761;DHT22;6444;49.742;6.114;2023-12-14T00:18:38;11.00;99.90
12761;DHT22;6444;49.742;6.114;2023-12-14T00:21:05;10.60;99.90
12761;DHT22;6444;49.742;6.114;2023-12-14T00:23:32;10.70;99.90
12761;DHT22;6444;49.742;6.114;2023-12-14T00:25:58;11.00;99.90
12761;DHT22;6444;49.742;6.114;2023-12-14T00:28:25;11.80;99.90
12761;DHT22;6444;49.742;6.114;2023-12-14T00:30:52;11.80;99.90
12761;DHT22;6444;49.742;6.114;2023-12-14T00:33:19;12.10;99.90
12761;DHT22;6444;49.742;6.114;2023-12-14T00:35:45;12.50;99.90
12761;DHT22;6444;49.742;6.114;2023-12-14T00:38:12;12.60;99.90
12761;DHT22;6444;49.742;6.114;2023-12-14T00:40:39;12.50;99.90
12761;DHT22;6444;49.742;6.114;2023-12-14T00:43:05;12.20;99.90
12761;DHT22;6444;49.742;6.114;2023-12-14T00:45:33;12.50;99.90
12761;DHT22;6444;49.742;6.114;2023-12-14T00:47:59;12.40;99.90
12761;DHT22;6444;49.742;6.114;2023-12-14T00:50:26;12.60;99.90
12761;DHT22;6444;49.742;6.114;2023-12-14T00:52:52;12.80;99.90
12761;DHT22;6444;49.742;6.114;2023-12-14T00:55:19;12.90;99.90
12761;DHT22;6444;49.742;6.114;2023-12-14T00:57:46;12.90;99.90
12761;DHT22;6444;49.742;6.114;2023-12-14T01:00:12;13.00;99.90
12761;DHT22;6444;49.742;6.114;2023-12-14T01:02:39;13.00;99.90
12761;DHT22;6444;49.742;6.114;2023-12-14T01:05:07;12.70;99.90
12761;DHT22;6444;49.742;6.114;2023-12-14T01:07:33;12.80;99.90
12761;DHT22;6444;49.742;6.114;2023-12-14T01:10:01;13.10;99.90
12761;DHT22;6444;49.742;6.114;2023-12-14T01:12:27;13.10;99.90
12761;DHT22;6444;49.742;6.114;2023-12-14T01:14:54;13.20;99.90
12761;DHT22;6444;49.742;6.114;2023-12-14T01:17:21;13.30;99.90
12761;DHT22;6444;49.742;6.114;2023-12-14T01:19:47;13.20;99.90
12761;DHT22;6444;49.742;6.114;2023-12-14T01:22:14;13.20;99.90
12761;DHT22;6444;49.742;6.114;2023-12-14T01:24:41;13.20;99.90
12761;DHT22;6444;49.742;6.114;2023-12-14T01:27:07;13.30;99.90
12761;DHT22;6444;49.742;6.114;2023-12-14T01:29:35;13.20;99.90
12761;DHT22;6444;49.742;6.114;2023-12-14T01:32:01;13.20;99.90
12761;DHT22;6444;49.742;6.114;2023-12-14T01:34:28;13.00;99.90
12761;DHT22;6444;49.742;6.114;2023-12-14T01:36:55;12.90;99.90
12761;DHT22;6444;49.742;6.114;2023-12-14T01:39:21;13.00;99.90
12761;DHT22;6444;49.742;6.114;2023-12-14T01:41:48;13.10;99.90
12761;DHT22;6444;49.742;6.114;2023-12-14T01:44:14;13.00;99.90
12761;DHT22;6444;49.742;6.114;2023-12-14T01:46:41;13.00;99.90
12761;DHT22;6444;49.742;6.114;2023-12-14T01:49:08;13.10;99.90
12761;DHT22;6444;49.742;6.114;2023-12-14T01:51:35;13.00;99.90
12761;DHT22;6444;49.742;6.114;2023-12-14T01:54:02;13.10;99.90
12761;DHT22;6444;49.742;6.114;2023-12-14T01:56:28;12.80;99.90
12761;DHT22;6444;49.742;6.114;2023-12-14T01:58:55;12.70;99.90
12761;DHT22;6444;49.742;6.114;2023-12-14T02:01:28;12.60;99.90
12761;DHT22;6444;49.742;6.114;2023-12-14T02:03:54;12.70;99.90
12761;DHT22;6444;49.742;6.114;2023-12-14T02:06:21;12.80;99.90
12761;DHT22;6444;49.742;6.114;2023-12-14T02:08:47;12.70;99.90
12761;DHT22;6444;49.742;6.114;2023-12-14T02:11:17;12.80;99.90
12761;DHT22;6444;49.742;6.114;2023-12-14T02:13:44;13.00;99.90
12761;DHT22;6444;49.742;6.114;2023-12-14T02:16:11;12.90;99.90
12761;DHT22;6444;49.742;6.114;2023-12-14T02:18:37;12.40;99.90
12761;DHT22;6444;49.742;6.114;2023-12-14T02:21:04;12.10;99.90
12761;DHT22;6444;49.742;6.114;2023-12-14T02:23:31;12.40;99.90
12761;DHT22;6444;49.742;6.114;2023-12-14T02:25:58;12.40;99.90
12761;DHT22;6444;49.742;6.114;2023-12-14T02:28:25;12.00;99.90
12761;DHT22;6444;49.742;6.114;2023-12-14T02:30:51;11.50;99.90
12761;DHT22;6444;49.742;6.114;2023-12-14T02:33:18;11.80;99.90
12761;DHT22;6444;49.742;6.114;2023-12-14T02:35:45;11.80;99.90
12761;DHT22;6444;49.742;6.114;2023-12-14T02:38:12;12.30;99.90
12761;DHT22;6444;49.742;6.114;2023-12-14T02:40:39;12.20;99.90
12761;DHT22;6444;49.742;6.114;2023-12-14T02:43:05;12.50;99.90
12761;DHT22;6444;49.742;6.114;2023-12-14T02:45:32;12.70;99.90
12761;DHT22;6444;49.742;6.114;2023-12-14T02:47:58;12.60;99.90
12761;DHT22;6444;49.742;6.114;2023-12-14T02:50:25;12.20;99.90
12761;DHT22;6444;49.742;6.114;2023-12-14T02:52:52;12.30;99.90
12761;DHT22;6444;49.742;6.114;2023-12-14T02:55:19;12.50;99.90
12761;DHT22;6444;49.742;6.114;2023-12-14T02:57:46;12.50;99.90
12761;DHT22;6444;49.742;6.114;2023-12-14T03:00:12;12.70;99.90
12761;DHT22;6444;49.742;6.114;2023-12-14T03:02:39;12.80;99.90
12761;DHT22;6444;49.742;6.114;2023-12-14T03:05:06;12.90;99.90
12761;DHT22;6444;49.742;6.114;2023-12-14T03:07:33;13.00;99.90
12761;DHT22;6444;49.742;6.114;2023-12-14T03:10:00;13.00;99.90
12761;DHT22;6444;49.742;6.114;2023-12-14T03:12:26;13.00;99.90
12761;DHT22;6444;49.742;6.114;2023-12-14T03:14:53;12.90;99.90
12761;DHT22;6444;49.742;6.114;2023-12-14T03:17:20;12.70;99.90
12761;DHT22;6444;49.742;6.114;2023-12-14T03:19:47;12.60;99.90
12761;DHT22;6444;49.742;6.114;2023-12-14T03:22:14;12.60;99.90
12761;DHT22;6444;49.742;6.114;2023-12-14T03:24:41;12.40;99.90
12761;DHT22;6444;49.742;6.114;2023-12-14T03:27:07;11.70;99.90
12761;DHT22;6444;49.742;6.114;2023-12-14T03:29:34;11.30;99.90
12761;DHT22;6444;49.742;6.114;2023-12-14T03:32:00;11.60;99.90
12761;DHT22;6444;49.742;6.114;2023-12-14T03:34:27;11.90;99.90
12761;DHT22;6444;49.742;6.114;2023-12-14T03:36:54;12.00;99.90
12761;DHT22;6444;49.742;6.114;2023-12-14T03:39:20;12.10;99.90
12761;DHT22;6444;49.742;6.114;2023-12-14T03:41:47;11.40;99.90
12761;DHT22;6444;49.742;6.114;2023-12-14T03:44:14;10.60;99.90
12761;DHT22;6444;49.742;6.114;2023-12-14T03:46:41;10.60;99.90
12761;DHT22;6444;49.742;6.114;2023-12-14T03:49:08;10.50;99.90
12761;DHT22;6444;49.742;6.114;2023-12-14T03:51:34;9.90;99.90
12761;DHT22;6444;49.742;6.114;2023-12-14T03:54:01;10.20;99.90
12761;DHT22;6444;49.742;6.114;2023-12-14T03:56:27;10.60;99.90
12761;DHT22;6444;49.742;6.114;2023-12-14T03:58:55;11.00;99.90
12761;DHT22;6444;49.742;6.114;2023-12-14T04:01:21;11.00;99.90
12761;DHT22;6444;49.742;6.114;2023-12-14T04:03:48;11.50;99.90
12761;DHT22;6444;49.742;6.114;2023-12-14T04:06:15;11.50;99.90
12761;DHT22;6444;49.742;6.114;2023-12-14T04:08:42;11.80;99.90
12761;DHT22;6444;49.742;6.114;2023-12-14T04:11:08;12.10;99.90
12761;DHT22;6444;49.742;6.114;2023-12-14T04:13:35;12.30;99.90
12761;DHT22;6444;49.742;6.114;2023-12-14T04:16:02;12.30;99.90
12761;DHT22;6444;49.742;6.114;2023-12-14T04:18:29;12.30;99.90
12761;DHT22;6444;49.742;6.114;2023-12-14T04:20:55;12.30;99.90
12761;DHT22;6444;49.742;6.114;2023-12-14T04:23:22;12.30;99.90
12761;DHT22;6444;49.742;6.114;2023-12-14T04:25:49;12.40;99.90
12761;DHT22;6444;49.742;6.114;2023-12-14T04:28:15;12.40;99.90
12761;DHT22;6444;49.742;6.114;2023-12-14T04:30:43;12.10;99.90
12761;DHT22;6444;49.742;6.114;2023-12-14T04:33:09;12.10;99.90
12761;DHT22;6444;49.742;6.114;2023-12-14T04:35:36;11.50;99.90
12761;DHT22;6444;49.742;6.114;2023-12-14T04:38:03;10.90;99.90
12761;DHT22;6444;49.742;6.114;2023-12-14T04:40:29;11.30;99.90
12761;DHT22;6444;49.742;6.114;2023-12-14T04:42:56;11.60;99.90
12761;DHT22;6444;49.742;6.114;2023-12-14T04:45:22;11.90;99.90
12761;DHT22;6444;49.742;6.114;2023-12-14T04:47:49;12.10;99.90
12761;DHT22;6444;49.742;6.114;2023-12-14T04:50:16;12.10;99.90
12761;DHT22;6444;49.742;6.114;2023-12-14T04:52:43;12.10;99.90
12761;DHT22;6444;49.742;6.114;2023-12-14T04:55:10;12.20;99.90
12761;DHT22;6444;49.742;6.114;2023-12-14T04:57:36;12.20;99.90
12761;DHT22;6444;49.742;6.114;2023-12-14T05:00:04;12.20;99.90
12761;DHT22;6444;49.742;6.114;2023-12-14T05:02:31;12.20;99.90
12761;DHT22;6444;49.742;6.114;2023-12-14T05:04:56;11.90;99.90
12761;DHT22;6444;49.742;6.114;2023-12-14T05:07:23;11.90;99.90
12761;DHT22;6444;49.742;6.114;2023-12-14T05:09:50;12.00;99.90
12761;DHT22;6444;49.742;6.114;2023-12-14T05:12:16;12.10;99.90
12761;DHT22;6444;49.742;6.114;2023-12-14T05:14:43;12.10;99.90
12761;DHT22;6444;49.742;6.114;2023-12-14T05:17:10;12.00;99.90
12761;DHT22;6444;49.742;6.114;2023-12-14T05:19:37;11.90;99.90
12761;DHT22;6444;49.742;6.114;2023-12-14T05:22:04;12.00;99.90
12761;DHT22;6444;49.742;6.114;2023-12-14T05:24:30;12.00;99.90
12761;DHT22;6444;49.742;6.114;2023-12-14T05:26:57;11.60;99.90
12761;DHT22;6444;49.742;6.114;2023-12-14T05:29:23;11.60;99.90
12761;DHT22;6444;49.742;6.114;2023-12-14T05:31:50;11.70;99.90
12761;DHT22;6444;49.742;6.114;2023-12-14T05:34:17;11.50;99.90
12761;DHT22;6444;49.742;6.114;2023-12-14T05:36:44;11.90;99.90
12761;DHT22;6444;49.742;6.114;2023-12-14T05:39:11;11.80;99.90
12761;DHT22;6444;49.742;6.114;2023-12-14T05:41:41;11.80;99.90
12761;DHT22;6444;49.742;6.114;2023-12-14T05:44:07;11.70;99.90
12761;DHT22;6444;49.742;6.114;2023-12-14T05:46:34;11.70;99.90
12761;DHT22;6444;49.742;6.114;2023-12-14T05:49:00;11.50;99.90
12761;DHT22;6444;49.742;6.114;2023-12-14T05:51:31;11.40;99.90
12761;DHT22;6444;49.742;6.114;2023-12-14T05:53:57;11.30;99.90
12761;DHT22;6444;49.742;6.114;2023-12-14T05:56:25;11.10;99.90
12761;DHT22;6444;49.742;6.114;2023-12-14T05:58:50;10.90;99.90
12761;DHT22;6444;49.742;6.114;2023-12-14T06:01:20;10.10;99.90
12761;DHT22;6444;49.742;6.114;2023-12-14T06:03:46;9.80;99.90
12761;DHT22;6444;49.742;6.114;2023-12-14T06:06:13;10.10;99.90
12761;DHT22;6444;49.742;6.114;2023-12-14T06:08:40;10.80;99.90
12761;DHT22;6444;49.742;6.114;2023-12-14T06:11:06;11.00;99.90
12761;DHT22;6444;49.742;6.114;2023-12-14T06:13:33;11.10;99.90
12761;DHT22;6444;49.742;6.114;2023-12-14T06:16:00;11.20;99.90
12761;DHT22;6444;49.742;6.114;2023-12-14T06:18:26;11.70;99.90
12761;DHT22;6444;49.742;6.114;2023-12-14T06:20:53;11.90;99.90
12761;DHT22;6444;49.742;6.114;2023-12-14T06:23:20;12.00;99.90
12761;DHT22;6444;49.742;6.114;2023-12-14T06:25:47;11.90;99.90
12761;DHT22;6444;49.742;6.114;2023-12-14T06:28:13;11.90;99.90
12761;DHT22;6444;49.742;6.114;2023-12-14T06:30:40;12.10;99.90
12761;DHT22;6444;49.742;6.114;2023-12-14T06:33:07;12.10;99.90
12761;DHT22;6444;49.742;6.114;2023-12-14T06:35:34;12.00;99.90
12761;DHT22;6444;49.742;6.114;2023-12-14T06:38:01;11.90;99.90
12761;DHT22;6444;49.742;6.114;2023-12-14T06:40:27;11.90;99.90
12761;DHT22;6444;49.742;6.114;2023-12-14T06:42:54;12.10;99.90
12761;DHT22;6444;49.742;6.114;2023-12-14T06:45:21;12.20;99.90
12761;DHT22;6444;49.742;6.114;2023-12-14T06:47:47;11.80;99.90
12761;DHT22;6444;49.742;6.114;2023-12-14T06:50:15;11.80;99.90
12761;DHT22;6444;49.742;6.114;2023-12-14T06:52:41;11.80;99.90
12761;DHT22;6444;49.742;6.114;2023-12-14T06:55:08;11.40;99.90
12761;DHT22;6444;49.742;6.114;2023-12-14T06:57:35;11.00;99.90
12761;DHT22;6444;49.742;6.114;2023-12-14T07:00:01;11.20;99.90
12761;DHT22;6444;49.742;6.114;2023-12-14T07:02:28;11.30;99.90
12761;DHT22;6444;49.742;6.114;2023-12-14T07:04:54;11.50;99.90
12761;DHT22;6444;49.742;6.114;2023-12-14T07:07:21;11.80;99.90
12761;DHT22;6444;49.742;6.114;2023-12-14T07:09:48;12.00;99.90
12761;DHT22;6444;49.742;6.114;2023-12-14T07:12:14;12.10;99.90
12761;DHT22;6444;49.742;6.114;2023-12-14T07:14:41;11.70;99.90
12761;DHT22;6444;49.742;6.114;2023-12-14T07:17:08;11.80;99.90
12761;DHT22;6444;49.742;6.114;2023-12-14T07:19:34;11.60;99.90
12761;DHT22;6444;49.742;6.114;2023-12-14T07:22:01;11.60;99.90
12761;DHT22;6444;49.742;6.114;2023-12-14T07:24:27;11.80;99.90
12761;DHT22;6444;49.742;6.114;2023-12-14T07:26:54;11.90;99.90
12761;DHT22;6444;49.742;6.114;2023-12-14T07:29:21;11.80;99.90
12761;DHT22;6444;49.742;6.114;2023-12-14T07:31:48;10.80;99.90
12761;DHT22;6444;49.742;6.114;2023-12-14T07:34:15;10.80;99.90
12761;DHT22;6444;49.742;6.114;2023-12-14T07:36:41;10.80;99.90
12761;DHT22;6444;49.742;6.114;2023-12-14T07:39:08;11.30;99.90
12761;DHT22;6444;49.742;6.114;2023-12-14T07:41:35;11.80;99.90
12761;DHT22;6444;49.742;6.114;2023-12-14T07:44:01;12.00;99.90
12761;DHT22;6444;49.742;6.114;2023-12-14T07:46:28;12.00;99.90
12761;DHT22;6444;49.742;6.114;2023-12-14T07:48:55;12.20;99.90
12761;DHT22;6444;49.742;6.114;2023-12-14T07:51:21;12.20;99.90
12761;DHT22;6444;49.742;6.114;2023-12-14T07:53:48;12.30;99.90
12761;DHT22;6444;49.742;6.114;2023-12-14T07:56:14;12.40;99.90
12761;DHT22;6444;49.742;6.114;2023-12-14T07:58:41;12.30;99.90
12761;DHT22;6444;49.742;6.114;2023-12-14T08:01:08;11.70;99.90
12761;DHT22;6444;49.742;6.114;2023-12-14T08:03:34;11.80;99.90
12761;DHT22;6444;49.742;6.114;2023-12-14T08:06:01;11.90;99.90
12761;DHT22;6444;49.742;6.114;2023-12-14T08:08:28;11.90;99.90
12761;DHT22;6444;49.742;6.114;2023-12-14T08:10:54;12.10;99.90
12761;DHT22;6444;49.742;6.114;2023-12-14T08:13:22;11.50;99.90
12761;DHT22;6444;49.742;6.114;2023-12-14T08:15:48;11.50;99.90
12761;DHT22;6444;49.742;6.114;2023-12-14T08:18:15;11.90;99.90
12761;DHT22;6444;49.742;6.114;2023-12-14T08:20:41;12.30;99.90
12761;DHT22;6444;49.742;6.114;2023-12-14T08:23:08;12.10;99.90
12761;DHT22;6444;49.742;6.114;2023-12-14T08:25:36;11.10;99.90
12761;DHT22;6444;49.742;6.114;2023-12-14T08:28:02;11.10;99.90
12761;DHT22;6444;49.742;6.114;2023-12-14T08:30:29;11.70;99.90
12761;DHT22;6444;49.742;6.114;2023-12-14T08:32:55;12.10;99.90
12761;DHT22;6444;49.742;6.114;2023-12-14T08:35:22;12.50;99.90
12761;DHT22;6444;49.742;6.114;2023-12-14T08:37:49;12.90;99.90
12761;DHT22;6444;49.742;6.114;2023-12-14T08:40:16;12.80;99.90
12761;DHT22;6444;49.742;6.114;2023-12-14T08:42:43;12.90;99.90
12761;DHT22;6444;49.742;6.114;2023-12-14T08:45:09;12.90;99.90
12761;DHT22;6444;49.742;6.114;2023-12-14T08:47:36;12.90;99.90
12761;DHT22;6444;49.742;6.114;2023-12-14T08:50:03;12.90;99.90
12761;DHT22;6444;49.742;6.114;2023-12-14T08:52:29;12.90;99.90
12761;DHT22;6444;49.742;6.114;2023-12-14T08:54:56;12.50;99.90
12761;DHT22;6444;49.742;6.114;2023-12-14T08:57:23;12.70;99.90
12761;DHT22;6444;49.742;6.114;2023-12-14T08:59:49;13.00;99.90
12761;DHT22;6444;49.742;6.114;2023-12-14T09:02:16;13.30;99.90
12761;DHT22;6444;49.742;6.114;2023-12-14T09:04:42;13.30;99.90
12761;DHT22;6444;49.742;6.114;2023-12-14T09:07:09;13.40;99.90
12761;DHT22;6444;49.742;6.114;2023-12-14T09:09:36;13.30;99.90
12761;DHT22;6444;49.742;6.114;2023-12-14T09:12:03;13.30;99.90
12761;DHT22;6444;49.742;6.114;2023-12-14T09:14:30;13.60;99.90
12761;DHT22;6444;49.742;6.114;2023-12-14T09:16:56;13.70;99.90
12761;DHT22;6444;49.742;6.114;2023-12-14T09:19:23;13.70;99.90
12761;DHT22;6444;49.742;6.114;2023-12-14T09:21:50;13.60;99.90
12761;DHT22;6444;49.742;6.114;2023-12-14T09:24:17;13.50;99.90
12761;DHT22;6444;49.742;6.114;2023-12-14T09:26:44;13.50;99.90
12761;DHT22;6444;49.742;6.114;2023-12-14T09:29:10;13.60;99.90
12761;DHT22;6444;49.742;6.114;2023-12-14T09:31:40;13.60;99.90
12761;DHT22;6444;49.742;6.114;2023-12-14T09:34:03;13.40;99.90
12761;DHT22;6444;49.742;6.114;2023-12-14T09:36:30;13.60;99.90
12761;DHT22;6444;49.742;6.114;2023-12-14T09:38:57;13.70;99.90
12761;DHT22;6444;49.742;6.114;2023-12-14T09:41:23;13.60;99.90
12761;DHT22;6444;49.742;6.114;2023-12-14T09:43:51;12.80;99.90
12761;DHT22;6444;49.742;6.114;2023-12-14T09:46:17;12.30;99.90
12761;DHT22;6444;49.742;6.114;2023-12-14T09:48:43;12.00;99.90
12761;DHT22;6444;49.742;6.114;2023-12-14T09:51:10;12.20;99.90
12761;DHT22;6444;49.742;6.114;2023-12-14T09:53:37;12.10;99.90
12761;DHT22;6444;49.742;6.114;2023-12-14T09:56:03;12.20;99.90
12761;DHT22;6444;49.742;6.114;2023-12-14T09:58:34;12.40;99.90
12761;DHT22;6444;49.742;6.114;2023-12-14T10:01:00;12.40;99.90
12761;DHT22;6444;49.742;6.114;2023-12-14T10:03:28;12.10;99.90
12761;DHT22;6444;49.742;6.114;2023-12-14T10:05:57;12.20;99.90
12761;DHT22;6444;49.742;6.114;2023-12-14T10:08:23;12.50;99.90
12761;DHT22;6444;49.742;6.114;2023-12-14T10:10:50;12.80;99.90
12761;DHT22;6444;49.742;6.114;2023-12-14T10:13:16;13.10;99.90
12761;DHT22;6444;49.742;6.114;2023-12-14T10:15:43;13.10;99.90
12761;DHT22;6444;49.742;6.114;2023-12-14T10:18:09;13.20;99.90
12761;DHT22;6444;49.742;6.114;2023-12-14T10:20:36;13.40;99.90
12761;DHT22;6444;49.742;6.114;2023-12-14T10:23:05;13.00;99.90
12761;DHT22;6444;49.742;6.114;2023-12-14T10:25:32;12.90;99.90
12761;DHT22;6444;49.742;6.114;2023-12-14T10:27:58;12.80;99.90
12761;DHT22;6444;49.742;6.114;2023-12-14T10:30:25;12.40;99.90
12761;DHT22;6444;49.742;6.114;2023-12-14T10:32:52;12.40;99.90
12761;DHT22;6444;49.742;6.114;2023-12-14T10:35:19;12.30;99.90
12761;DHT22;6444;49.742;6.114;2023-12-14T10:37:45;12.30;99.90
12761;DHT22;6444;49.742;6.114;2023-12-14T10:40:13;12.10;99.90
12761;DHT22;6444;49.742;6.114;2023-12-14T10:42:41;11.70;99.90
12761;DHT22;6444;49.742;6.114;2023-12-14T10:45:06;11.70;99.90
12761;DHT22;6444;49.742;6.114;2023-12-14T10:47:33;11.40;99.90
12761;DHT22;6444;49.742;6.114;2023-12-14T10:50:00;11.20;99.90
12761;DHT22;6444;49.742;6.114;2023-12-14T10:52:26;11.20;99.90
12761;DHT22;6444;49.742;6.114;2023-12-14T10:54:53;11.00;99.90
12761;DHT22;6444;49.742;6.114;2023-12-14T10:57:19;11.00;99.90
12761;DHT22;6444;49.742;6.114;2023-12-14T10:59:48;10.70;99.90
12761;DHT22;6444;49.742;6.114;2023-12-14T11:02:13;10.40;99.90
12761;DHT22;6444;49.742;6.114;2023-12-14T11:04:55;10.30;99.90
12761;DHT22;6444;49.742;6.114;2023-12-14T11:07:42;10.70;99.90
12761;DHT22;6444;49.742;6.114;2023-12-14T11:09:47;11.10;99.90
12761;DHT22;6444;49.742;6.114;2023-12-14T11:12:14;10.50;99.90
12761;DHT22;6444;49.742;6.114;2023-12-14T11:14:41;10.70;99.90
12761;DHT22;6444;49.742;6.114;2023-12-14T11:17:08;10.50;99.90
12761;DHT22;6444;49.742;6.114;2023-12-14T11:19:34;10.90;99.90
12761;DHT22;6444;49.742;6.114;2023-12-14T11:22:14;11.50;99.90
12761;DHT22;6444;49.742;6.114;2023-12-14T11:24:42;11.60;99.90
12761;DHT22;6444;49.742;6.114;2023-12-14T11:27:09;11.80;99.90
12761;DHT22;6444;49.742;6.114;2023-12-14T11:29:38;11.50;99.90
12761;DHT22;6444;49.742;6.114;2023-12-14T11:32:02;11.70;99.90
12761;DHT22;6444;49.742;6.114;2023-12-14T11:34:29;11.40;99.90
12761;DHT22;6444;49.742;6.114;2023-12-14T11:36:55;11.80;99.90
12761;DHT22;6444;49.742;6.114;2023-12-14T11:39:22;12.00;99.90
12761;DHT22;6444;49.742;6.114;2023-12-14T11:42:02;11.90;99.90
12761;DHT22;6444;49.742;6.114;2023-12-14T11:44:29;11.80;99.90
12761;DHT22;6444;49.742;6.114;2023-12-14T11:46:55;11.20;99.90
12761;DHT22;6444;49.742;6.114;2023-12-14T11:49:25;11.30;99.90
12761;DHT22;6444;49.742;6.114;2023-12-14T11:51:53;11.50;99.90
12761;DHT22;6444;49.742;6.114;2023-12-14T11:54:18;11.40;99.90
12761;DHT22;6444;49.742;6.114;2023-12-14T11:56:47;11.60;99.90
12761;DHT22;6444;49.742;6.114;2023-12-14T11:59:17;11.50;99.90
12761;DHT22;6444;49.742;6.114;2023-12-14T12:01:55;11.10;99.90
12761;DHT22;6444;49.742;6.114;2023-12-14T12:04:21;11.30;99.90
12761;DHT22;6444;49.742;6.114;2023-12-14T12:06:48;11.40;99.90
12761;DHT22;6444;49.742;6.114;2023-12-14T12:09:31;11.30;99.90
12761;DHT22;6444;49.742;6.114;2023-12-14T12:11:41;11.30;99.90
12761;DHT22;6444;49.742;6.114;2023-12-14T12:14:08;11.00;99.90
12761;DHT22;6444;49.742;6.114;2023-12-14T12:16:34;10.90;99.90
12761;DHT22;6444;49.742;6.114;2023-12-14T12:19:01;11.10;99.90
12761;DHT22;6444;49.742;6.114;2023-12-14T12:21:28;11.50;99.90
12761;DHT22;6444;49.742;6.114;2023-12-14T12:23:54;11.30;99.90
12761;DHT22;6444;49.742;6.114;2023-12-14T12:26:21;11.10;99.90
12761;DHT22;6444;49.742;6.114;2023-12-14T12:28:48;11.20;99.90
12761;DHT22;6444;49.742;6.114;2023-12-14T12:31:15;11.20;99.90
12761;DHT22;6444;49.742;6.114;2023-12-14T12:33:42;10.30;99.90
12761;DHT22;6444;49.742;6.114;2023-12-14T12:36:08;10.50;99.90
12761;DHT22;6444;49.742;6.114;2023-12-14T12:38:36;10.80;99.90
12761;DHT22;6444;49.742;6.114;2023-12-14T12:41:02;10.80;99.90
12761;DHT22;6444;49.742;6.114;2023-12-14T12:43:29;11.00;99.90
12761;DHT22;6444;49.742;6.114;2023-12-14T12:45:56;10.70;99.90
12761;DHT22;6444;49.742;6.114;2023-12-14T12:48:22;10.80;99.90
12761;DHT22;6444;49.742;6.114;2023-12-14T12:50:49;11.10;99.90
12761;DHT22;6444;49.742;6.114;2023-12-14T12:53:16;11.30;99.90
12761;DHT22;6444;49.742;6.114;2023-12-14T12:55:43;11.10;99.90
12761;DHT22;6444;49.742;6.114;2023-12-14T12:58:10;11.00;99.90
12761;DHT22;6444;49.742;6.114;2023-12-14T13:00:36;11.00;99.90
12761;DHT22;6444;49.742;6.114;2023-12-14T13:03:03;10.20;99.90
12761;DHT22;6444;49.742;6.114;2023-12-14T13:05:30;10.60;99.90
12761;DHT22;6444;49.742;6.114;2023-12-14T13:07:57;10.60;99.90
12761;DHT22;6444;49.742;6.114;2023-12-14T13:10:24;11.00;99.90
12761;DHT22;6444;49.742;6.114;2023-12-14T13:12:50;11.10;99.90
12761;DHT22;6444;49.742;6.114;2023-12-14T13:15:17;11.10;99.90
12761;DHT22;6444;49.742;6.114;2023-12-14T13:17:44;10.80;99.90
12761;DHT22;6444;49.742;6.114;2023-12-14T13:20:11;10.80;99.90
12761;DHT22;6444;49.742;6.114;2023-12-14T13:22:37;10.70;99.90
12761;DHT22;6444;49.742;6.114;2023-12-14T13:25:04;10.50;99.90
12761;DHT22;6444;49.742;6.114;2023-12-14T13:27:31;9.90;99.90
12761;DHT22;6444;49.742;6.114;2023-12-14T13:29:58;9.70;99.90
12761;DHT22;6444;49.742;6.114;2023-12-14T13:32:24;10.00;99.90
12761;DHT22;6444;49.742;6.114;2023-12-14T13:34:51;10.20;99.90
12761;DHT22;6444;49.742;6.114;2023-12-14T13:37:18;9.30;99.90
12761;DHT22;6444;49.742;6.114;2023-12-14T13:39:45;9.30;99.90
12761;DHT22;6444;49.742;6.114;2023-12-14T13:42:12;9.00;99.90
12761;DHT22;6444;49.742;6.114;2023-12-14T13:44:39;10.10;99.90
12761;DHT22;6444;49.742;6.114;2023-12-14T13:47:06;10.10;99.90
12761;DHT22;6444;49.742;6.114;2023-12-14T13:49:33;10.10;99.90
12761;DHT22;6444;49.742;6.114;2023-12-14T13:51:59;9.40;99.90
12761;DHT22;6444;49.742;6.114;2023-12-14T13:54:26;9.80;99.90
12761;DHT22;6444;49.742;6.114;2023-12-14T13:56:53;9.70;99.90
12761;DHT22;6444;49.742;6.114;2023-12-14T13:59:19;10.00;99.90
12761;DHT22;6444;49.742;6.114;2023-12-14T14:01:46;10.20;99.90
12761;DHT22;6444;49.742;6.114;2023-12-14T14:04:13;10.10;99.90
12761;DHT22;6444;49.742;6.114;2023-12-14T14:06:40;10.00;99.90
12761;DHT22;6444;49.742;6.114;2023-12-14T14:09:07;10.30;99.90
12761;DHT22;6444;49.742;6.114;2023-12-14T14:11:33;10.80;99.90
12761;DHT22;6444;49.742;6.114;2023-12-14T14:14:00;10.30;99.90
12761;DHT22;6444;49.742;6.114;2023-12-14T14:16:27;10.70;99.90
12761;DHT22;6444;49.742;6.114;2023-12-14T14:18:54;10.60;99.90
12761;DHT22;6444;49.742;6.114;2023-12-14T14:21:21;11.10;99.90
12761;DHT22;6444;49.742;6.114;2023-12-14T14:23:47;11.40;99.90
12761;DHT22;6444;49.742;6.114;2023-12-14T14:26:14;11.60;99.90
12761;DHT22;6444;49.742;6.114;2023-12-14T14:28:41;10.90;99.90
12761;DHT22;6444;49.742;6.114;2023-12-14T14:31:08;10.90;99.90
12761;DHT22;6444;49.742;6.114;2023-12-14T14:33:34;10.90;99.90
12761;DHT22;6444;49.742;6.114;2023-12-14T14:36:01;10.70;99.90
12761;DHT22;6444;49.742;6.114;2023-12-14T14:38:29;10.30;99.90
12761;DHT22;6444;49.742;6.114;2023-12-14T14:40:55;10.30;99.90
12761;DHT22;6444;49.742;6.114;2023-12-14T14:43:22;10.70;99.90
12761;DHT22;6444;49.742;6.114;2023-12-14T14:45:48;10.90;99.90
12761;DHT22;6444;49.742;6.114;2023-12-14T14:48:15;10.80;99.90
12761;DHT22;6444;49.742;6.114;2023-12-14T14:50:42;10.70;99.90
12761;DHT22;6444;49.742;6.114;2023-12-14T14:53:09;10.70;99.90
12761;DHT22;6444;49.742;6.114;2023-12-14T14:55:36;10.80;99.90
12761;DHT22;6444;49.742;6.114;2023-12-14T14:58:02;10.50;99.90
12761;DHT22;6444;49.742;6.114;2023-12-14T15:00:29;10.50;99.90
12761;DHT22;6444;49.742;6.114;2023-12-14T15:02:56;11.00;99.90
12761;DHT22;6444;49.742;6.114;2023-12-14T15:05:23;11.00;99.90
12761;DHT22;6444;49.742;6.114;2023-12-14T15:07:50;11.40;99.90
12761;DHT22;6444;49.742;6.114;2023-12-14T15:10:16;11.10;99.90
12761;DHT22;6444;49.742;6.114;2023-12-14T15:12:44;10.50;99.90
12761;DHT22;6444;49.742;6.114;2023-12-14T15:15:10;10.40;99.90
12761;DHT22;6444;49.742;6.114;2023-12-14T15:17:37;9.90;99.90
12761;DHT22;6444;49.742;6.114;2023-12-14T15:20:05;10.20;99.90
12761;DHT22;6444;49.742;6.114;2023-12-14T15:22:32;10.60;99.90
12761;DHT22;6444;49.742;6.114;2023-12-14T15:24:58;10.90;99.90
12761;DHT22;6444;49.742;6.114;2023-12-14T15:27:25;10.70;99.90
12761;DHT22;6444;49.742;6.114;2023-12-14T15:29:51;10.90;99.90
12761;DHT22;6444;49.742;6.114;2023-12-14T15:32:18;11.30;99.90
12761;DHT22;6444;49.742;6.114;2023-12-14T15:34:45;11.00;99.90
12761;DHT22;6444;49.742;6.114;2023-12-14T15:37:12;11.00;99.90
12761;DHT22;6444;49.742;6.114;2023-12-14T15:39:39;10.40;99.90
12761;DHT22;6444;49.742;6.114;2023-12-14T15:42:06;10.70;99.90
12761;DHT22;6444;49.742;6.114;2023-12-14T15:44:32;10.70;99.90